Time;durP1;ratioP1;P1;durP2;ratioP2;P2;SDS_P1;SDS_P2;PMS_P1;PMS_P2;Temp;Humidity;BMP_temperature;BMP_pressure;BME280_temperature;BME280_humidity;BME280_pressure;Samples;Min_cycle;Max_cycle;Signal;HPM_P1;HPM_P2
2023/10/25 00:01:11;;;;;;;13.02;10.30;;;8.40;99.90;;;;;;5073258;28;20209;-62
2023/10/25 00:03:38;;;;;;;13.50;10.20;;;8.40;99.90;;;;;;5073372;28;20201;-63
2023/10/25 00:06:05;;;;;;;13.93;10.32;;;8.40;99.90;;;;;;5074049;28;20203;-62
2023/10/25 00:08:33;;;;;;;16.05;10.30;;;8.40;99.90;;;;;;5073384;28;20201;-63
2023/10/25 00:11:05;;;;;;;13.25;10.43;;;8.40;99.90;;;;;;5073390;28;20212;-63
2023/10/25 00:13:31;;;;;;;15.95;10.15;;;8.30;99.90;;;;;;5072610;28;20671;-65
2023/10/25 00:15:58;;;;;;;16.38;11.60;;;8.40;99.90;;;;;;5072803;28;20205;-63
2023/10/25 00:18:25;;;;;;;14.88;10.43;;;8.30;99.90;;;;;;5072903;28;20221;-63
2023/10/25 00:20:52;;;;;;;18.77;11.32;;;8.30;99.90;;;;;;5072875;28;20201;-63
2023/10/25 00:23:19;;;;;;;12.98;10.40;;;8.40;99.90;;;;;;5073050;28;20228;-63
2023/10/25 00:25:48;;;;;;;13.40;9.60;;;8.40;99.90;;;;;;5072673;28;20225;-63
2023/10/25 00:28:15;;;;;;;14.52;10.82;;;8.40;99.90;;;;;;5075452;28;20204;-63
2023/10/25 00:30:43;;;;;;;16.40;10.05;;;8.50;99.90;;;;;;5076570;28;20642;-63
2023/10/25 00:33:10;;;;;;;13.38;10.90;;;8.50;99.90;;;;;;5076993;28;20574;-63
2023/10/25 00:35:37;;;;;;;16.55;9.07;;;8.50;99.90;;;;;;5076819;28;20224;-63
2023/10/25 00:38:04;;;;;;;10.98;8.63;;;8.50;99.90;;;;;;5076766;28;20217;-63
2023/10/25 00:40:31;;;;;;;12.73;9.70;;;8.50;99.90;;;;;;5076515;28;20578;-63
2023/10/25 00:43:14;;;;;;;14.98;10.15;;;8.50;99.90;;;;;;5076501;28;20208;-64
2023/10/25 00:45:57;;;;;;;16.80;9.60;;;8.50;99.90;;;;;;5076594;28;20220;-63
2023/10/25 00:48:24;;;;;;;12.70;9.57;;;8.50;99.90;;;;;;5076831;28;20196;-63
2023/10/25 00:50:51;;;;;;;14.73;9.98;;;8.50;99.90;;;;;;5076682;28;20201;-63
2023/10/25 00:53:18;;;;;;;12.60;10.25;;;8.50;99.90;;;;;;5076631;28;20201;-63
2023/10/25 00:55:45;;;;;;;17.67;10.27;;;8.50;99.90;;;;;;5076820;28;20236;-61
2023/10/25 00:58:13;;;;;;;15.93;10.00;;;8.50;99.90;;;;;;5076553;28;20225;-62
2023/10/25 01:00:40;;;;;;;12.27;9.20;;;8.50;99.90;;;;;;5076843;28;20205;-63
2023/10/25 01:03:08;;;;;;;11.23;8.75;;;8.50;99.90;;;;;;5076281;28;20208;-62
2023/10/25 01:05:35;;;;;;;16.08;9.55;;;8.50;99.90;;;;;;5076493;28;20588;-63
2023/10/25 01:08:02;;;;;;;15.73;9.40;;;8.60;99.90;;;;;;5076053;28;20575;-63
2023/10/25 01:10:29;;;;;;;16.08;8.93;;;8.60;99.90;;;;;;5076062;28;20212;-63
2023/10/25 01:12:56;;;;;;;13.45;8.65;;;8.70;99.90;;;;;;5076020;28;20208;-63
2023/10/25 01:15:24;;;;;;;13.70;8.93;;;8.70;99.90;;;;;;5075858;28;20229;-63
2023/10/25 01:17:51;;;;;;;11.20;8.15;;;8.70;99.90;;;;;;5076047;28;20581;-63
2023/10/25 01:20:19;;;;;;;13.35;8.55;;;8.80;99.90;;;;;;5076207;28;20205;-63
2023/10/25 01:22:47;;;;;;;11.40;8.65;;;8.80;99.90;;;;;;5076166;28;20197;-63
2023/10/25 01:25:14;;;;;;;10.20;7.65;;;8.80;99.90;;;;;;5076038;28;20352;-63
2023/10/25 01:27:41;;;;;;;9.73;7.95;;;8.80;99.90;;;;;;5075946;28;20197;-63
2023/10/25 01:30:09;;;;;;;10.63;8.20;;;8.70;99.90;;;;;;5075917;28;20201;-63
2023/10/25 01:32:36;;;;;;;11.20;8.32;;;8.80;99.90;;;;;;5075784;28;20212;-63
2023/10/25 01:35:02;;;;;;;8.98;7.30;;;8.70;99.90;;;;;;5075608;28;20718;-63
2023/10/25 01:37:29;;;;;;;11.80;8.45;;;8.70;99.90;;;;;;5075959;28;20224;-64
2023/10/25 01:39:57;;;;;;;10.20;7.53;;;8.70;99.90;;;;;;5075019;28;20201;-63
2023/10/25 01:42:24;;;;;;;9.63;6.95;;;8.70;99.90;;;;;;5075469;28;20685;-64
2023/10/25 01:44:50;;;;;;;9.45;8.25;;;8.70;99.90;;;;;;5075594;28;20225;-63
2023/10/25 01:47:17;;;;;;;12.85;8.77;;;8.70;99.90;;;;;;5075329;28;20212;-63
2023/10/25 01:49:44;;;;;;;14.52;7.55;;;8.60;99.90;;;;;;5075745;28;20212;-63
2023/10/25 01:52:11;;;;;;;10.20;7.72;;;8.60;99.90;;;;;;5075537;28;20201;-64
2023/10/25 01:54:37;;;;;;;11.55;7.40;;;8.60;99.90;;;;;;5075348;28;20225;-64
2023/10/25 01:57:06;;;;;;;10.57;6.97;;;8.60;99.90;;;;;;5075539;28;20196;-63
2023/10/25 01:59:32;;;;;;;9.07;8.18;;;8.60;99.90;;;;;;5075662;28;20208;-64
2023/10/25 02:01:59;;;;;;;12.35;8.30;;;8.60;99.90;;;;;;5075294;28;20197;-64
2023/10/25 02:04:26;;;;;;;12.85;8.25;;;8.60;99.90;;;;;;5075450;28;20232;-63
2023/10/25 02:06:53;;;;;;;12.05;7.43;;;8.60;99.90;;;;;;5075358;28;20201;-63
2023/10/25 02:09:20;;;;;;;9.63;7.40;;;8.60;99.90;;;;;;5074877;28;20670;-63
2023/10/25 02:11:47;;;;;;;8.75;7.65;;;8.60;99.90;;;;;;5075807;28;20204;-62
2023/10/25 02:14:15;;;;;;;8.88;7.40;;;8.60;99.90;;;;;;5098084;22;20224;-59
2023/10/25 02:16:42;;;;;;;10.65;7.85;;;8.60;99.90;;;;;;5075465;28;20213;-60
2023/10/25 02:19:09;;;;;;;9.75;7.57;;;8.60;99.90;;;;;;5074949;28;20213;-59
2023/10/25 02:21:36;;;;;;;10.98;7.40;;;8.60;99.90;;;;;;5075576;28;20622;-59
2023/10/25 02:24:03;;;;;;;9.30;7.15;;;8.60;99.90;;;;;;5074749;28;20201;-60
2023/10/25 02:26:30;;;;;;;11.30;7.72;;;8.70;99.90;;;;;;5074515;28;20278;-59
2023/10/25 02:28:57;;;;;;;8.73;7.50;;;8.70;99.90;;;;;;5074515;28;20214;-59
2023/10/25 02:31:25;;;;;;;9.88;7.00;;;8.60;99.90;;;;;;5075195;28;20201;-59
2023/10/25 02:33:51;;;;;;;12.13;8.10;;;8.70;99.90;;;;;;5075175;28;20204;-59
2023/10/25 02:36:18;;;;;;;11.27;8.00;;;8.70;99.90;;;;;;5075132;28;20208;-59
2023/10/25 02:38:48;;;;;;;11.93;7.88;;;8.80;99.90;;;;;;5075102;28;20533;-58
2023/10/25 02:41:15;;;;;;;8.27;6.88;;;8.70;99.90;;;;;;5076107;28;20197;-60
2023/10/25 02:43:42;;;;;;;13.00;7.30;;;8.80;99.90;;;;;;5076474;28;20197;-59
2023/10/25 02:46:09;;;;;;;10.10;6.95;;;8.80;99.90;;;;;;5075264;28;20224;-59
2023/10/25 02:48:37;;;;;;;8.18;7.00;;;8.70;99.90;;;;;;5075391;28;20242;-59
2023/10/25 02:51:05;;;;;;;9.52;7.43;;;8.70;99.90;;;;;;5074641;28;20201;-60
2023/10/25 02:53:32;;;;;;;11.05;7.45;;;8.70;99.90;;;;;;5074704;28;20201;-60
2023/10/25 02:55:59;;;;;;;7.88;7.00;;;8.70;99.90;;;;;;5074437;28;20227;-60
2023/10/25 02:58:26;;;;;;;11.43;6.75;;;8.70;99.90;;;;;;5074124;28;20593;-60
2023/10/25 03:00:53;;;;;;;9.02;7.00;;;8.70;99.90;;;;;;5074222;28;20208;-59
2023/10/25 03:03:20;;;;;;;9.95;7.95;;;8.70;99.90;;;;;;5074462;28;20208;-60
2023/10/25 03:05:48;;;;;;;7.82;7.03;;;8.70;99.90;;;;;;5074311;28;20225;-60
2023/10/25 03:08:14;;;;;;;8.15;6.72;;;8.70;99.90;;;;;;5073869;28;20208;-59
2023/10/25 03:10:41;;;;;;;7.57;6.63;;;8.70;99.90;;;;;;5074570;28;20212;-59
2023/10/25 03:13:08;;;;;;;7.90;6.95;;;8.70;99.90;;;;;;5074161;28;20201;-59
2023/10/25 03:15:35;;;;;;;7.45;6.43;;;8.70;99.90;;;;;;5074164;28;20236;-59
2023/10/25 03:18:02;;;;;;;8.95;6.90;;;8.70;99.90;;;;;;5073671;28;20721;-59
2023/10/25 03:20:29;;;;;;;8.27;6.60;;;8.70;99.90;;;;;;5073857;28;20201;-59
2023/10/25 03:22:57;;;;;;;8.82;7.13;;;8.70;99.90;;;;;;5074257;28;20197;-59
2023/10/25 03:25:24;;;;;;;11.25;7.25;;;8.70;99.90;;;;;;5074016;28;20217;-59
2023/10/25 03:27:51;;;;;;;10.20;6.90;;;8.70;99.90;;;;;;5073743;28;20570;-59
2023/10/25 03:30:18;;;;;;;8.35;6.47;;;8.70;99.90;;;;;;5073785;28;20220;-59
2023/10/25 03:32:45;;;;;;;9.77;6.53;;;8.60;99.90;;;;;;5074178;28;20227;-59
2023/10/25 03:35:12;;;;;;;10.30;8.75;;;8.60;99.90;;;;;;5073609;28;20220;-59
2023/10/25 03:37:40;;;;;;;9.07;6.97;;;8.60;99.90;;;;;;5073601;28;20212;-58
2023/10/25 03:40:10;;;;;;;7.75;6.95;;;8.60;99.90;;;;;;5073671;28;20201;-59
2023/10/25 03:42:36;;;;;;;7.30;6.60;;;8.60;99.90;;;;;;5073780;28;20234;-59
2023/10/25 03:45:06;;;;;;;10.98;6.10;;;8.60;99.90;;;;;;5073558;28;20231;-59
2023/10/25 03:47:34;;;;;;;7.78;6.97;;;8.60;99.90;;;;;;5074227;28;20197;-60
2023/10/25 03:50:01;;;;;;;11.80;6.20;;;8.60;99.90;;;;;;5076204;28;20201;-60
2023/10/25 03:52:28;;;;;;;10.38;6.72;;;8.50;99.90;;;;;;5082134;28;20204;-59
2023/10/25 03:54:55;;;;;;;9.90;6.15;;;8.50;99.90;;;;;;5081784;28;20220;-59
2023/10/25 03:57:23;;;;;;;11.00;7.20;;;8.50;99.90;;;;;;5081807;28;20204;-59
2023/10/25 03:59:50;;;;;;;7.82;6.63;;;8.50;99.90;;;;;;5078041;28;20193;-59
2023/10/25 04:02:17;;;;;;;8.45;5.82;;;8.50;99.90;;;;;;5088666;22;20231;-61
2023/10/25 04:04:43;;;;;;;7.82;6.05;;;8.50;99.90;;;;;;5073191;28;20670;-62
2023/10/25 04:07:11;;;;;;;7.80;6.30;;;8.50;99.90;;;;;;5073693;28;20205;-61
2023/10/25 04:12:24;;;;;;;10.93;6.63;;;8.50;99.90;;;;;;5091647;28;20553;-62
2023/10/25 04:14:51;;;;;;;7.65;5.50;;;8.50;99.90;;;;;;5091459;28;20216;-61
2023/10/25 04:17:17;;;;;;;7.65;5.60;;;8.50;99.90;;;;;;5091175;28;20196;-62
2023/10/25 04:19:44;;;;;;;9.13;5.75;;;8.50;99.90;;;;;;5091389;28;20196;-61
2023/10/25 04:22:13;;;;;;;6.90;5.65;;;8.50;99.90;;;;;;5091068;28;20597;-61
2023/10/25 04:24:40;;;;;;;7.13;5.47;;;8.40;99.90;;;;;;5091899;28;20204;-59
2023/10/25 04:27:07;;;;;;;6.60;5.82;;;8.40;99.90;;;;;;5091361;28;20200;-61
2023/10/25 04:29:35;;;;;;;8.82;5.85;;;8.40;99.90;;;;;;5090978;28;20197;-61
2023/10/25 04:32:01;;;;;;;7.35;5.18;;;8.40;99.90;;;;;;5090950;28;20628;-63
2023/10/25 04:34:28;;;;;;;6.45;5.50;;;8.40;99.90;;;;;;5091250;28;20643;-61
2023/10/25 04:36:55;;;;;;;6.45;5.30;;;8.50;99.90;;;;;;5091203;28;20200;-62
2023/10/25 04:39:22;;;;;;;8.30;5.63;;;8.50;99.90;;;;;;5091472;28;20324;-61
2023/10/25 04:41:48;;;;;;;7.30;5.60;;;8.50;99.90;;;;;;5092161;28;20217;-61
2023/10/25 04:44:15;;;;;;;7.22;6.10;;;8.50;99.90;;;;;;5091813;28;20215;-62
2023/10/25 04:46:43;;;;;;;6.50;5.47;;;8.40;99.90;;;;;;5091947;28;20208;-61
2023/10/25 04:49:10;;;;;;;9.55;5.50;;;8.40;99.90;;;;;;5095800;28;20216;-60
2023/10/25 04:51:37;;;;;;;7.45;6.40;;;8.30;99.90;;;;;;5094425;28;20228;-61
2023/10/25 04:54:04;;;;;;;7.25;5.45;;;8.30;99.90;;;;;;5092764;28;20205;-61
2023/10/25 04:56:30;;;;;;;8.45;6.03;;;8.20;99.90;;;;;;5094113;28;20201;-62
2023/10/25 04:58:57;;;;;;;7.03;6.32;;;8.20;99.90;;;;;;5094769;28;20678;-60
2023/10/25 05:01:24;;;;;;;7.97;5.90;;;8.20;99.90;;;;;;5104495;28;20284;-61
2023/10/25 05:03:52;;;;;;;7.40;6.28;;;8.10;99.90;;;;;;5105040;28;20307;-61
2023/10/25 05:06:19;;;;;;;7.15;6.43;;;8.10;99.90;;;;;;5097145;28;20216;-62
2023/10/25 05:08:46;;;;;;;7.97;6.25;;;8.10;99.90;;;;;;5091517;28;20646;-61
2023/10/25 05:11:15;;;;;;;6.45;5.28;;;8.10;99.90;;;;;;5091674;28;20224;-61
2023/10/25 05:13:43;;;;;;;7.47;5.82;;;8.00;99.90;;;;;;5091138;28;20651;-62
2023/10/25 05:16:11;;;;;;;9.20;6.28;;;8.10;99.90;;;;;;5090773;28;20200;-61
2023/10/25 05:18:38;;;;;;;9.27;6.40;;;8.00;99.90;;;;;;5090582;28;20689;-61
2023/10/25 05:21:07;;;;;;;9.32;6.38;;;8.00;99.90;;;;;;5090760;28;20224;-61
2023/10/25 05:23:34;;;;;;;10.77;6.28;;;8.00;99.90;;;;;;5078218;28;20207;-60
2023/10/25 05:26:03;;;;;;;11.32;6.40;;;8.00;99.90;;;;;;5077008;28;20231;-62
2023/10/25 05:28:31;;;;;;;7.82;7.03;;;8.00;99.90;;;;;;5076527;28;20208;-61
2023/10/25 05:31:01;;;;;;;10.35;7.20;;;8.00;99.90;;;;;;5076735;28;20229;-61
2023/10/25 05:33:29;;;;;;;7.50;5.85;;;7.90;99.90;;;;;;5077216;28;20194;-61
2023/10/25 05:35:56;;;;;;;9.13;7.05;;;7.90;99.90;;;;;;5076875;28;20205;-61
2023/10/25 05:38:25;;;;;;;7.60;6.10;;;7.90;99.90;;;;;;5076748;28;20212;-61
2023/10/25 05:40:53;;;;;;;19.80;7.20;;;7.80;99.90;;;;;;5076598;28;20201;-61
2023/10/25 05:43:27;;;;;;;12.43;7.05;;;7.80;99.90;;;;;;5076730;28;20197;-59
2023/10/25 05:45:54;;;;;;;10.95;7.63;;;7.80;99.90;;;;;;5076479;28;20231;-61
2023/10/25 05:48:21;;;;;;;9.70;6.82;;;7.80;99.90;;;;;;5077098;28;20221;-60
2023/10/25 05:50:51;;;;;;;7.32;6.30;;;7.80;99.90;;;;;;5076519;28;20232;-62
2023/10/25 05:53:19;;;;;;;10.13;7.07;;;7.70;99.90;;;;;;5081450;28;20209;-61
2023/10/25 05:55:48;;;;;;;9.98;6.72;;;7.70;99.90;;;;;;5083619;28;20227;-61
2023/10/25 05:58:16;;;;;;;8.68;6.60;;;7.70;99.90;;;;;;5085075;28;20207;-62
2023/10/25 06:00:48;;;;;;;8.68;7.32;;;7.70;99.90;;;;;;5084715;28;20204;-60
2023/10/25 06:03:19;;;;;;;10.98;7.90;;;7.70;99.90;;;;;;5089019;28;20192;-59
2023/10/25 06:05:52;;;;;;;12.40;8.00;;;7.70;99.90;;;;;;5086180;28;20186;-61
2023/10/25 06:08:19;;;;;;;10.55;6.95;;;7.80;99.90;;;;;;5083224;28;20203;-61
2023/10/25 06:10:48;;;;;;;9.68;7.18;;;7.80;99.90;;;;;;5082994;28;20220;-60
2023/10/25 06:13:16;;;;;;;12.05;8.80;;;7.80;99.90;;;;;;5086863;28;20209;-60
2023/10/25 06:15:43;;;;;;;8.10;7.28;;;7.80;99.90;;;;;;5079629;28;20204;-61
2023/10/25 06:18:10;;;;;;;11.82;8.45;;;7.80;99.90;;;;;;5079629;28;20205;-61
2023/10/25 06:20:37;;;;;;;11.02;8.85;;;7.70;99.90;;;;;;5079074;28;20197;-61
2023/10/25 06:23:04;;;;;;;13.05;8.52;;;7.70;99.90;;;;;;5079152;28;20201;-60
2023/10/25 06:25:30;;;;;;;11.23;9.15;;;7.70;99.90;;;;;;5077331;28;20205;-62
2023/10/25 06:27:59;;;;;;;13.57;8.35;;;7.70;99.90;;;;;;5077203;28;20223;-61
2023/10/25 06:30:26;;;;;;;11.93;8.27;;;7.70;99.90;;;;;;5077315;28;20578;-61
2023/10/25 06:32:53;;;;;;;9.55;7.90;;;7.70;99.90;;;;;;5077481;28;20225;-61
2023/10/25 06:35:20;;;;;;;14.70;8.75;;;7.70;99.90;;;;;;5075461;28;20205;-61
2023/10/25 06:37:47;;;;;;;10.68;7.72;;;7.70;99.90;;;;;;5076589;28;20209;-61
2023/10/25 06:40:15;;;;;;;10.73;9.23;;;7.70;99.90;;;;;;5078808;28;20200;-63
2023/10/25 06:42:42;;;;;;;13.15;9.40;;;7.70;99.90;;;;;;5082116;28;20232;-61
2023/10/25 06:45:14;;;;;;;11.13;9.52;;;7.80;99.90;;;;;;5082416;28;20209;-61
2023/10/25 06:47:42;;;;;;;12.50;10.40;;;7.80;99.90;;;;;;5080414;28;20189;-61
2023/10/25 06:50:10;;;;;;;10.20;8.02;;;8.00;99.90;;;;;;5079496;28;20212;-60
2023/10/25 06:52:37;;;;;;;13.35;9.05;;;8.20;99.90;;;;;;5079999;28;20224;-60
2023/10/25 06:55:05;;;;;;;11.93;9.27;;;8.30;99.90;;;;;;5076680;28;20555;-61
2023/10/25 06:57:33;;;;;;;15.90;9.15;;;8.30;99.90;;;;;;5079335;28;20201;-61
2023/10/25 07:00:00;;;;;;;12.73;8.90;;;8.40;99.90;;;;;;5079121;28;20212;-60
2023/10/25 07:02:38;;;;;;;12.82;9.68;;;8.50;99.90;;;;;;5077263;28;20216;-61
2023/10/25 07:05:11;;;;;;;9.70;8.70;;;8.60;99.90;;;;;;5077217;28;20197;-61
2023/10/25 07:07:39;;;;;;;10.48;8.55;;;8.60;99.90;;;;;;5075889;28;20207;-60
2023/10/25 07:10:08;;;;;;;11.60;7.60;;;8.70;99.90;;;;;;5075362;28;20197;-61
2023/10/25 07:12:34;;;;;;;11.27;8.18;;;8.70;99.90;;;;;;5076700;28;20224;-61
2023/10/25 07:15:01;;;;;;;9.52;7.72;;;8.80;99.90;;;;;;5076117;28;20204;-61
2023/10/25 07:17:30;;;;;;;7.78;6.93;;;8.90;99.90;;;;;;5076985;28;20201;-60
2023/10/25 07:19:58;;;;;;;9.73;8.20;;;8.90;99.90;;;;;;5075592;28;20254;-62
2023/10/25 07:22:25;;;;;;;13.02;7.85;;;8.90;99.90;;;;;;5077055;28;20244;-61
2023/10/25 07:24:52;;;;;;;9.43;7.15;;;9.00;99.90;;;;;;5076774;28;20701;-62
2023/10/25 07:27:19;;;;;;;13.70;7.50;;;9.00;99.90;;;;;;5077900;28;20201;-61
2023/10/25 07:29:45;;;;;;;9.97;6.93;;;9.10;99.90;;;;;;5080442;28;20205;-61
2023/10/25 07:32:12;;;;;;;11.18;7.82;;;9.30;99.90;;;;;;5079712;28;20486;-61
2023/10/25 07:34:40;;;;;;;10.17;6.57;;;9.60;99.90;;;;;;5076100;28;20201;-60
2023/10/25 07:37:07;;;;;;;8.60;6.43;;;9.80;99.90;;;;;;5075525;28;20451;-60
2023/10/25 07:39:34;;;;;;;7.90;6.80;;;10.10;99.90;;;;;;5075221;28;20445;-61
2023/10/25 07:42:01;;;;;;;7.73;6.20;;;10.30;99.90;;;;;;5075106;28;20463;-62
2023/10/25 07:44:28;;;;;;;14.53;7.67;;;10.40;99.90;;;;;;5074676;28;20506;-60
2023/10/25 07:46:54;;;;;;;7.63;6.33;;;10.40;99.90;;;;;;5074818;28;20431;-62
2023/10/25 07:49:21;;;;;;;6.93;6.23;;;10.50;99.90;;;;;;5075214;28;20439;-61
2023/10/25 07:51:49;;;;;;;6.67;5.90;;;10.50;99.90;;;;;;5075163;28;21006;-61
2023/10/25 07:54:16;;;;;;;8.80;5.87;;;10.50;99.90;;;;;;5074697;28;20439;-62
2023/10/25 07:56:43;;;;;;;6.37;5.70;;;10.60;99.90;;;;;;5075500;28;20462;-61
2023/10/25 07:59:10;;;;;;;7.80;6.40;;;10.70;99.90;;;;;;5074404;28;20446;-61
2023/10/25 08:01:37;;;;;;;6.00;5.40;;;10.80;99.90;;;;;;5075011;28;20969;-61
2023/10/25 08:04:05;;;;;;;8.10;6.20;;;10.90;99.90;;;;;;5075374;28;20443;-60
2023/10/25 08:06:32;;;;;;;8.00;5.87;;;11.00;99.90;;;;;;5075749;28;20443;-61
2023/10/25 08:09:00;;;;;;;7.97;5.80;;;11.20;99.90;;;;;;5075478;28;20446;-61
2023/10/25 08:11:27;;;;;;;12.13;5.80;;;11.30;99.90;;;;;;5075366;28;21042;-60
2023/10/25 08:13:54;;;;;;;7.53;6.17;;;11.40;99.90;;;;;;5077060;28;20868;-61
2023/10/25 08:16:20;;;;;;;6.50;5.90;;;11.40;99.90;;;;;;5074941;28;20439;-61
2023/10/25 08:18:47;;;;;;;8.57;5.47;;;11.40;99.90;;;;;;5075967;28;20463;-61
2023/10/25 08:21:16;;;;;;;7.60;6.17;;;11.40;99.90;;;;;;5076334;28;20463;-61
2023/10/25 08:23:45;;;;;;;9.30;5.63;;;11.40;99.90;;;;;;5076735;28;20496;-61
2023/10/25 08:26:13;;;;;;;7.17;5.63;;;11.40;99.90;;;;;;5076143;28;20475;-62
2023/10/25 08:28:40;;;;;;;7.00;5.10;;;11.40;99.90;;;;;;5076209;28;20531;-62
2023/10/25 08:31:12;;;;;;;6.40;5.43;;;11.30;99.90;;;;;;5075460;28;20467;-62
2023/10/25 08:33:39;;;;;;;7.93;5.07;;;11.30;99.90;;;;;;5075230;28;20479;-61
2023/10/25 08:36:07;;;;;;;7.80;5.87;;;11.30;99.90;;;;;;5075191;28;20439;-63
2023/10/25 08:38:34;;;;;;;6.87;5.67;;;11.40;99.90;;;;;;5073754;28;20448;-62
2023/10/25 08:41:02;;;;;;;6.20;5.13;;;11.40;99.90;;;;;;5074923;28;20463;-61
2023/10/25 08:43:31;;;;;;;7.27;5.27;;;11.50;99.90;;;;;;5074487;28;20443;-61
2023/10/25 08:45:58;;;;;;;5.87;4.90;;;11.50;99.90;;;;;;5074051;28;20443;-62
2023/10/25 08:48:25;;;;;;;6.83;4.70;;;11.50;99.90;;;;;;5074531;28;20443;-61
2023/10/25 08:50:52;;;;;;;6.13;5.00;;;11.50;99.90;;;;;;5073774;28;20955;-62
2023/10/25 08:53:22;;;;;;;5.67;4.73;;;11.50;99.90;;;;;;5073974;28;20467;-61
2023/10/25 08:55:52;;;;;;;5.00;4.50;;;11.50;99.90;;;;;;5074677;28;20439;-61
2023/10/25 08:58:19;;;;;;;6.70;4.67;;;11.50;99.90;;;;;;5076713;28;20958;-61
2023/10/25 09:00:48;;;;;;;6.60;5.70;;;11.50;99.90;;;;;;5078164;28;20517;-61
2023/10/25 09:03:42;;;;;;;5.63;4.77;;;11.50;99.90;;;;;;5078903;28;20472;-60
2023/10/25 09:06:11;;;;;;;5.83;5.23;;;11.60;99.90;;;;;;5078045;28;20461;-61
2023/10/25 09:08:38;;;;;;;8.50;5.90;;;11.60;99.90;;;;;;5077672;28;20445;-60
2023/10/25 09:11:08;;;;;;;5.50;5.00;;;11.60;99.90;;;;;;5077363;28;20475;-60
2023/10/25 09:13:36;;;;;;;6.23;5.63;;;11.60;99.90;;;;;;5077722;28;20528;-63
2023/10/25 09:16:06;;;;;;;7.50;6.70;;;11.70;99.90;;;;;;5078356;28;20816;-60
2023/10/25 09:18:34;;;;;;;5.77;5.20;;;11.60;99.90;;;;;;5078085;28;20443;-61
2023/10/25 09:21:01;;;;;;;6.13;5.30;;;11.60;99.90;;;;;;5078345;28;20569;-62
2023/10/25 09:23:29;;;;;;;8.10;6.30;;;11.60;99.90;;;;;;5079024;28;20439;-64
2023/10/25 09:25:56;;;;;;;6.23;5.63;;;11.60;99.90;;;;;;5079499;28;20439;-62
2023/10/25 09:28:28;;;;;;;7.10;6.40;;;11.70;99.90;;;;;;5079375;28;20443;-61
2023/10/25 09:30:55;;;;;;;5.70;5.07;;;11.60;99.90;;;;;;5079297;28;20424;-62
2023/10/25 09:33:24;;;;;;;5.70;5.10;;;11.70;99.90;;;;;;5078499;28;20837;-60
2023/10/25 09:35:51;;;;;;;5.70;5.03;;;11.70;99.90;;;;;;5078686;28;20443;-61
2023/10/25 09:38:18;;;;;;;6.70;4.17;;;11.70;99.90;;;;;;5080027;28;20444;-61
2023/10/25 09:40:46;;;;;;;5.47;4.60;;;11.70;99.90;;;;;;5078256;28;20983;-60
2023/10/25 09:43:16;;;;;;;5.67;4.70;;;11.70;99.90;;;;;;5077706;28;20442;-61
2023/10/25 09:45:46;;;;;;;4.90;4.40;;;11.80;99.90;;;;;;5077688;28;20439;-61
2023/10/25 09:48:16;;;;;;;4.80;4.20;;;11.80;99.90;;;;;;5077023;28;20450;-60
2023/10/25 09:51:00;;;;;;;7.03;4.50;;;11.80;99.90;;;;;;5076842;28;20446;-61
2023/10/25 09:53:28;;;;;;;6.00;4.87;;;11.80;99.90;;;;;;5076876;28;20485;-62
2023/10/25 09:56:02;;;;;;;4.33;3.93;;;11.90;99.90;;;;;;5079594;28;20466;-60
2023/10/25 09:58:33;;;;;;;6.43;4.47;;;11.90;99.90;;;;;;5082188;28;20496;-61
2023/10/25 10:01:03;;;;;;;4.63;4.13;;;11.90;99.90;;;;;;5089061;28;20540;-61
2023/10/25 10:03:37;;;;;;;5.77;4.83;;;12.00;99.90;;;;;;5087153;28;20535;-60
2023/10/25 10:06:21;;;;;;;5.00;4.50;;;12.00;99.90;;;;;;5080348;28;20430;-61
2023/10/25 10:08:53;;;;;;;5.43;4.40;;;12.00;99.90;;;;;;5080324;28;20428;-61
2023/10/25 10:11:28;;;;;;;7.00;4.30;;;12.10;99.90;;;;;;5076299;28;20478;-62
2023/10/25 10:14:28;;;;;;;4.67;3.40;;;12.20;99.90;;;;;;5076889;28;20466;-60
2023/10/25 10:16:58;;;;;;;6.20;3.70;;;12.30;99.90;;;;;;5076864;28;20443;-62
2023/10/25 10:19:25;;;;;;;5.27;3.50;;;12.40;99.90;;;;;;5076138;28;20834;-62
2023/10/25 10:22:05;;;;;;;7.50;4.10;;;12.50;99.90;;;;;;5076309;28;21087;-60
2023/10/25 10:24:39;;;;;;;7.67;4.03;;;12.70;99.90;;;;;;5076791;28;20415;-63
2023/10/25 10:27:06;;;;;;;5.27;3.50;;;12.70;99.90;;;;;;5077046;28;20435;-61
2023/10/25 10:29:41;;;;;;;4.33;3.87;;;12.80;99.90;;;;;;5075931;28;20446;-60
2023/10/25 10:32:09;;;;;;;7.90;3.67;;;12.80;99.90;;;;;;5076270;28;20473;-61
2023/10/25 10:34:41;;;;;;;4.10;3.60;;;12.90;99.90;;;;;;5077372;28;20477;-61
2023/10/25 10:37:10;;;;;;;3.27;2.97;;;12.90;99.90;;;;;;5075717;28;20424;-61
2023/10/25 10:39:38;;;;;;;4.03;3.23;;;13.00;99.90;;;;;;5078558;28;20845;-61
2023/10/25 10:42:05;;;;;;;5.03;3.83;;;13.10;99.90;;;;;;5077259;28;20512;-61
2023/10/25 10:44:35;;;;;;;3.83;3.43;;;13.20;99.90;;;;;;5075653;28;20458;-61
2023/10/25 10:47:05;;;;;;;5.83;4.47;;;13.30;99.90;;;;;;5076541;28;20446;-61
2023/10/25 10:49:35;;;;;;;6.07;4.43;;;13.30;99.90;;;;;;5076242;28;20451;-61
2023/10/25 10:52:02;;;;;;;3.57;3.27;;;13.30;99.90;;;;;;5076041;28;20471;-61
2023/10/25 10:54:31;;;;;;;4.53;3.70;;;13.30;99.90;;;;;;5076122;28;20486;-61
2023/10/25 10:56:58;;;;;;;8.80;4.50;;;13.30;99.90;;;;;;5076569;28;20929;-62
2023/10/25 10:59:28;;;;;;;5.63;3.70;;;13.40;99.90;;;;;;5075981;28;20446;-62
2023/10/25 11:01:55;;;;;;;7.17;3.57;;;13.40;99.90;;;;;;5075711;28;20463;-61
2023/10/25 11:04:22;;;;;;;5.87;3.90;;;13.40;99.90;;;;;;5080145;28;20967;-62
2023/10/25 11:06:49;;;;;;;4.50;4.10;;;13.50;99.90;;;;;;5082086;28;20458;-61
2023/10/25 11:09:15;;;;;;;4.23;3.83;;;13.50;99.90;;;;;;5083970;28;20454;-61
2023/10/25 11:11:44;;;;;;;4.50;4.10;;;13.60;99.90;;;;;;5078241;28;20538;-63
2023/10/25 11:14:11;;;;;;;4.20;3.70;;;13.60;99.90;;;;;;5076178;28;20475;-62
2023/10/25 11:16:38;;;;;;;5.70;3.67;;;13.60;99.90;;;;;;5077641;28;20447;-62
2023/10/25 11:19:08;;;;;;;6.27;4.17;;;13.70;99.90;;;;;;5076250;28;20443;-62
2023/10/25 11:21:35;;;;;;;5.77;3.60;;;13.60;99.90;;;;;;5075004;28;20467;-62
2023/10/25 11:24:06;;;;;;;5.23;4.13;;;13.60;99.90;;;;;;5075536;28;20804;-61
2023/10/25 11:26:37;;;;;;;5.40;4.20;;;13.50;99.90;;;;;;5076063;28;20427;-61
2023/10/25 11:29:06;;;;;;;4.87;3.53;;;13.50;99.90;;;;;;5075505;28;20432;-61
2023/10/25 11:31:33;;;;;;;4.30;3.90;;;13.60;99.90;;;;;;5075272;28;20470;-62
2023/10/25 11:34:01;;;;;;;6.93;3.37;;;13.80;99.90;;;;;;5075595;28;20569;-62
2023/10/25 11:36:30;;;;;;;7.83;3.67;;;13.90;99.90;;;;;;5075549;28;20439;-61
2023/10/25 11:39:08;;;;;;;5.30;3.10;;;14.10;99.90;;;;;;5074693;28;20447;-61
2023/10/25 11:41:34;;;;;;;2.80;2.60;;;14.40;99.90;;;;;;5074567;28;20520;-61
2023/10/25 11:44:01;;;;;;;6.77;3.40;;;14.50;99.90;;;;;;5074905;28;20440;-62
2023/10/25 11:46:35;;;;;;;3.87;2.57;;;14.60;99.90;;;;;;5075498;28;20443;-66
2023/10/25 11:49:03;;;;;;;3.17;2.53;;;14.70;99.90;;;;;;5074987;28;20490;-61
2023/10/25 11:51:31;;;;;;;3.10;2.80;;;14.70;99.90;;;;;;5075422;28;20459;-60
2023/10/25 11:53:57;;;;;;;3.10;2.37;;;14.60;99.90;;;;;;5074108;28;20475;-61
2023/10/25 11:56:24;;;;;;;7.27;5.20;;;14.50;99.90;;;;;;5074608;28;20813;-61
2023/10/25 11:58:51;;;;;;;2.83;2.50;;;14.30;99.90;;;;;;5075091;28;20813;-60
2023/10/25 12:01:18;;;;;;;4.60;2.63;;;14.20;99.90;;;;;;5074483;28;20991;-62
2023/10/25 12:03:47;;;;;;;3.70;2.57;;;14.10;99.90;;;;;;5076017;28;20431;-62
2023/10/25 12:06:13;;;;;;;4.80;3.17;;;14.00;99.90;;;;;;5074983;28;20443;-61
2023/10/25 12:08:41;;;;;;;3.60;2.67;;;13.80;99.90;;;;;;5075127;28;20450;-61
2023/10/25 12:11:10;;;;;;;3.03;2.43;;;13.80;99.90;;;;;;5074029;28;20493;-63
2023/10/25 12:13:37;;;;;;;4.33;2.50;;;13.70;99.90;;;;;;5074051;28;20570;-62
2023/10/25 12:16:04;;;;;;;3.40;2.00;;;13.70;99.90;;;;;;5074405;28;20442;-61
2023/10/25 12:18:33;;;;;;;5.23;2.80;;;13.70;99.90;;;;;;5074419;28;20448;-60
2023/10/25 12:21:01;;;;;;;6.03;2.47;;;13.70;99.90;;;;;;5074336;28;20497;-61
2023/10/25 12:23:28;;;;;;;2.20;1.90;;;13.80;99.90;;;;;;5075759;28;20817;-60
2023/10/25 12:25:55;;;;;;;4.20;2.33;;;13.80;99.90;;;;;;5075845;28;20446;-60
2023/10/25 12:28:21;;;;;;;3.30;2.10;;;13.80;99.90;;;;;;5074480;28;20523;-61
2023/10/25 12:30:48;;;;;;;3.20;2.80;;;13.80;99.90;;;;;;5078508;28;20435;-60
2023/10/25 12:33:15;;;;;;;3.60;2.67;;;13.80;99.90;;;;;;5085072;28;20838;-62
2023/10/25 12:35:42;;;;;;;2.97;2.57;;;13.80;99.90;;;;;;5093525;28;20449;-62
2023/10/25 12:38:11;;;;;;;2.60;2.13;;;13.80;99.90;;;;;;5089280;28;20447;-61
2023/10/25 12:40:38;;;;;;;2.87;2.60;;;13.90;99.90;;;;;;5083274;28;20443;-62
2023/10/25 12:43:05;;;;;;;6.70;2.00;;;14.00;99.90;;;;;;5080713;28;20439;-62
2023/10/25 12:45:33;;;;;;;3.17;2.03;;;14.00;99.90;;;;;;5079770;28;20824;-60
2023/10/25 12:47:59;;;;;;;4.03;2.43;;;14.00;99.90;;;;;;5079368;28;20451;-62
2023/10/25 12:50:26;;;;;;;4.03;2.13;;;14.10;99.90;;;;;;5078933;28;20897;-61
2023/10/25 12:52:53;;;;;;;3.30;2.37;;;14.10;99.90;;;;;;5078254;28;20455;-60
2023/10/25 12:55:21;;;;;;;8.50;2.50;;;14.10;99.90;;;;;;5079847;28;20445;-61